createdAt,value
2022-12-25T00:00:46.687Z,32.08
2022-12-25T00:02:48.874Z,32.58
2022-12-25T00:04:50.833Z,36.25
2022-12-25T00:06:52.612Z,35.63
2022-12-25T00:08:54.269Z,35.28
2022-12-25T00:11:04.376Z,38.08
2022-12-25T00:13:06.189Z,39.30
2022-12-25T00:15:08.197Z,35.28
2022-12-25T00:17:10.165Z,34.58
2022-12-25T00:19:11.917Z,31.92
2022-12-25T00:21:14.415Z,30.33
2022-12-25T00:23:16.315Z,31.15
2022-12-25T00:25:18.253Z,29.83
2022-12-25T00:27:19.969Z,28.40
2022-12-25T00:29:21.745Z,28.55
2022-12-25T00:31:24.924Z,29.83
2022-12-25T00:33:26.671Z,29.25
2022-12-25T00:35:28.661Z,30.13
2022-12-25T00:37:30.527Z,27.88
2022-12-25T00:39:32.204Z,29.02
2022-12-25T00:41:34.490Z,28.15
2022-12-25T00:43:36.728Z,27.02
2022-12-25T00:45:38.458Z,26.83
2022-12-25T00:47:40.423Z,27.50
2022-12-25T00:49:42.203Z,26.17
2022-12-25T00:51:43.879Z,26.77
2022-12-25T00:53:45.739Z,27.20
2022-12-25T00:55:54.645Z,27.77
2022-12-25T00:57:56.341Z,33.15
2022-12-25T00:59:58.179Z,42.58
2022-12-25T01:02:00.693Z,50.67
2022-12-25T01:04:02.445Z,31.88
2022-12-25T01:06:06.674Z,34.00
2022-12-25T01:08:08.894Z,36.25
2022-12-25T01:10:11.336Z,36.17
2022-12-25T01:12:13.169Z,31.80
2022-12-25T01:14:15.306Z,31.02
2022-12-25T01:16:17.151Z,27.27
2022-12-25T01:18:19.868Z,34.95
2022-12-25T01:20:21.765Z,29.40
2022-12-25T01:22:23.451Z,30.63
2022-12-25T01:24:25.180Z,30.10
2022-12-25T01:26:27.825Z,31.83
2022-12-25T01:28:29.516Z,33.70
2022-12-25T01:30:31.418Z,37.25
2022-12-25T01:32:33.298Z,38.35
2022-12-25T01:34:35.111Z,42.85
2022-12-25T01:36:37.015Z,66.43
2022-12-25T01:38:38.965Z,68.93
2022-12-25T01:40:41.093Z,54.55
2022-12-25T01:42:43.457Z,61.95
2022-12-25T01:44:48.252Z,50.25
2022-12-25T01:46:49.931Z,46.85
2022-12-25T01:48:53.413Z,56.03
2022-12-25T01:51:23.236Z,53.15
2022-12-25T01:53:26.531Z,54.58
2022-12-25T01:55:28.557Z,60.60
2022-12-25T01:57:34.916Z,49.08
2022-12-25T01:59:36.668Z,41.50
2022-12-25T02:01:38.600Z,89.13
2022-12-25T02:03:40.509Z,51.75
2022-12-25T02:05:42.589Z,42.20
2022-12-25T02:07:46.443Z,40.90
2022-12-25T02:09:48.856Z,35.90
2022-12-25T02:11:50.536Z,34.85
2022-12-25T02:13:52.306Z,33.83
2022-12-25T02:16:15.742Z,38.50
2022-12-25T02:18:42.214Z,36.43
2022-12-25T02:21:01.517Z,34.83
2022-12-25T02:23:29.578Z,32.60
2022-12-25T02:25:37.217Z,42.83
2022-12-25T02:28:05.632Z,63.22
2022-12-25T02:30:10.407Z,43.05
2022-12-25T02:32:29.980Z,40.65
2022-12-25T02:34:46.432Z,48.70
2022-12-25T02:37:11.613Z,39.50
2022-12-25T02:39:33.688Z,45.30
2022-12-25T02:41:39.929Z,49.05
2022-12-25T02:43:45.833Z,47.67
2022-12-25T02:45:55.724Z,33.53
2022-12-25T02:47:57.902Z,34.45
2022-12-25T02:50:01.084Z,31.10
2022-12-25T02:52:09.522Z,31.77
2022-12-25T02:54:16.500Z,32.72
2022-12-25T02:56:20.137Z,31.35
2022-12-25T03:00:26.090Z,30.25
2022-12-25T03:02:30.904Z,27.67
2022-12-25T03:04:33.786Z,28.48
2022-12-25T03:06:38.665Z,29.45
2022-12-25T03:08:43.251Z,30.50
2022-12-25T03:10:50.322Z,31.42
2022-12-25T03:12:56.630Z,31.35
2022-12-25T03:14:58.443Z,32.38
2022-12-25T03:17:00.788Z,28.48
2022-12-25T03:19:03.119Z,27.95
2022-12-25T03:21:05.142Z,29.15
2022-12-25T03:23:08.406Z,28.42
2022-12-25T03:25:10.815Z,29.15
2022-12-25T03:27:12.521Z,27.23
2022-12-25T03:29:14.211Z,42.17
2022-12-25T03:31:43.235Z,31.38
2022-12-25T03:34:09.731Z,30.70
2022-12-25T03:36:29.321Z,32.67
2022-12-25T03:38:43.102Z,35.20
2022-12-25T03:40:56.719Z,37.60
2022-12-25T03:43:21.141Z,30.63
2022-12-25T03:47:35.823Z,30.80
2022-12-25T03:49:46.549Z,36.03
2022-12-25T03:51:51.690Z,43.03
2022-12-25T03:54:04.215Z,42.45
2022-12-25T03:56:07.253Z,35.10
2022-12-25T03:58:20.608Z,46.65
2022-12-25T04:00:22.505Z,37.45
2022-12-25T04:02:24.545Z,37.72
2022-12-25T04:04:26.407Z,40.17
2022-12-25T04:06:28.388Z,31.45
2022-12-25T04:08:30.345Z,30.67
2022-12-25T04:10:32.037Z,34.30
2022-12-25T04:12:34.033Z,29.60
2022-12-25T04:14:35.762Z,44.47
2022-12-25T04:16:37.491Z,38.50
2022-12-25T04:18:39.576Z,35.10
2022-12-25T04:20:41.302Z,33.22
2022-12-25T04:22:42.966Z,39.83
2022-12-25T04:24:44.964Z,38.00
2022-12-25T04:26:46.692Z,51.00
2022-12-25T04:28:48.420Z,45.25
2022-12-25T04:30:50.209Z,33.08
2022-12-25T04:32:57.816Z,36.00
2022-12-25T04:34:59.508Z,29.10
2022-12-25T04:37:01.461Z,29.23
2022-12-25T04:39:03.306Z,31.02
2022-12-25T04:41:05.908Z,26.58
2022-12-25T04:43:07.798Z,36.72
2022-12-25T04:45:10.190Z,29.52
2022-12-25T04:47:13.037Z,31.00
2022-12-25T04:49:14.845Z,25.52
2022-12-25T04:51:19.794Z,31.42
2022-12-25T04:53:21.526Z,29.02
2022-12-25T04:55:23.386Z,35.63
2022-12-25T04:57:25.408Z,26.67
2022-12-25T04:59:27.091Z,29.50
2022-12-25T05:01:29.207Z,27.98
2022-12-25T05:03:31.184Z,29.48
2022-12-25T05:05:32.894Z,26.13
2022-12-25T05:07:34.717Z,29.05
2022-12-25T05:09:36.486Z,31.58
2022-12-25T05:11:38.305Z,25.05
2022-12-25T05:13:40.199Z,28.15
2022-12-25T05:15:43.023Z,34.13
2022-12-25T05:17:44.747Z,30.80
2022-12-25T05:19:46.608Z,32.08
2022-12-25T05:21:48.396Z,31.08
2022-12-25T05:23:51.693Z,39.83
2022-12-25T05:25:53.639Z,49.15
2022-12-25T05:27:55.384Z,55.05
2022-12-25T05:29:57.048Z,42.95
2022-12-25T05:31:59.021Z,32.83
2022-12-25T05:34:00.751Z,32.95
2022-12-25T05:36:05.000Z,29.48
2022-12-25T05:38:08.335Z,32.35
2022-12-25T05:40:10.539Z,42.90
2022-12-25T05:42:12.230Z,41.65
2022-12-25T05:44:14.516Z,44.58
2022-12-25T05:46:16.520Z,43.42
2022-12-25T05:48:18.252Z,35.90
2022-12-25T05:50:20.153Z,33.88
2022-12-25T05:52:21.939Z,34.65
2022-12-25T05:54:23.614Z,32.42
2022-12-25T05:56:25.378Z,33.30
2022-12-25T05:58:27.246Z,33.20
2022-12-25T06:00:29.030Z,32.42
2022-12-25T06:02:31.005Z,37.70
2022-12-25T06:04:33.131Z,39.80
2022-12-25T06:06:34.806Z,37.58
2022-12-25T06:08:37.107Z,38.30
2022-12-25T06:10:38.885Z,35.50
2022-12-25T06:12:40.639Z,32.92
2022-12-25T06:14:42.423Z,30.98
2022-12-25T06:16:44.205Z,29.92
2022-12-25T06:18:49.026Z,31.52
2022-12-25T06:20:50.888Z,34.22
2022-12-25T06:22:52.640Z,33.75
2022-12-25T06:24:54.483Z,33.60
2022-12-25T06:26:56.200Z,34.70
2022-12-25T06:28:57.994Z,32.85
2022-12-25T06:30:59.684Z,30.65
2022-12-25T06:33:01.340Z,30.63
2022-12-25T06:35:03.111Z,29.80
2022-12-25T06:37:04.939Z,30.88
2022-12-25T06:39:06.764Z,29.20
2022-12-25T06:41:11.036Z,29.58
2022-12-25T06:43:12.785Z,38.63
2022-12-25T06:45:14.583Z,64.55
2022-12-25T06:47:16.409Z,73.28
2022-12-25T06:49:18.096Z,99.20
2022-12-25T06:51:25.214Z,177.80
2022-12-25T06:53:26.949Z,93.32
2022-12-25T06:55:28.636Z,107.97
2022-12-25T06:57:30.486Z,110.55
2022-12-25T06:59:32.393Z,118.38
2022-12-25T07:01:38.360Z,130.27
2022-12-25T07:03:40.294Z,87.95
2022-12-25T07:05:42.029Z,98.75
2022-12-25T07:07:43.730Z,90.97
2022-12-25T07:09:45.649Z,79.68
2022-12-25T07:11:47.432Z,73.78
2022-12-25T07:13:49.332Z,75.10
2022-12-25T07:15:59.448Z,74.80
2022-12-25T07:18:01.279Z,78.93
2022-12-25T07:20:03.103Z,79.18
2022-12-25T07:22:05.007Z,89.75
2022-12-25T07:24:07.207Z,87.78
2022-12-25T07:26:10.888Z,81.65
2022-12-25T07:30:14.620Z,86.50
2022-12-25T07:32:16.495Z,93.90
2022-12-25T07:34:19.143Z,114.82
2022-12-25T07:36:21.176Z,106.38
2022-12-25T07:38:22.886Z,111.43
2022-12-25T07:40:24.600Z,147.13
2022-12-25T07:42:26.285Z,229.93
2022-12-25T07:44:28.056Z,177.10
2022-12-25T07:46:30.118Z,164.23
2022-12-25T07:48:32.399Z,286.50
2022-12-25T07:50:34.405Z,246.30
2022-12-25T07:52:43.038Z,380.13
2022-12-25T07:54:45.217Z,217.13
2022-12-25T07:56:51.131Z,293.83
2022-12-25T07:58:52.913Z,136.98
2022-12-25T08:00:54.875Z,156.73
2022-12-25T08:02:56.939Z,198.48
2022-12-25T08:04:58.962Z,145.15
2022-12-25T08:07:00.781Z,122.55
2022-12-25T08:09:07.764Z,79.53
2022-12-25T08:11:10.456Z,71.18
2022-12-25T08:13:14.636Z,95.97
2022-12-25T08:15:16.548Z,69.85
2022-12-25T08:17:18.257Z,63.20
2022-12-25T08:19:19.973Z,59.22
2022-12-25T08:21:21.731Z,74.72
2022-12-25T08:23:23.475Z,69.43
2022-12-25T08:25:25.240Z,65.30
2022-12-25T08:27:26.903Z,84.82
2022-12-25T08:29:28.673Z,66.25
2022-12-25T08:31:30.870Z,67.95
2022-12-25T08:33:32.594Z,55.15
2022-12-25T08:35:35.466Z,52.38
2022-12-25T08:37:37.297Z,71.75
2022-12-25T08:39:38.979Z,78.43
2022-12-25T08:41:41.004Z,138.65
2022-12-25T08:43:43.337Z,116.88
2022-12-25T08:45:47.532Z,146.90
2022-12-25T08:47:54.428Z,131.38
2022-12-25T08:49:56.314Z,106.07
2022-12-25T08:51:58.066Z,110.13
2022-12-25T08:54:01.130Z,87.95
2022-12-25T08:56:07.084Z,127.90
2022-12-25T08:58:09.261Z,94.95
2022-12-25T09:00:11.524Z,89.22
2022-12-25T09:02:13.421Z,112.78
2022-12-25T09:04:15.279Z,89.38
2022-12-25T09:06:17.560Z,89.13
2022-12-25T09:08:19.600Z,63.72
2022-12-25T09:10:21.653Z,77.68
2022-12-25T09:12:23.681Z,74.63
2022-12-25T09:14:25.580Z,81.68
2022-12-25T09:16:27.416Z,64.50
2022-12-25T09:18:29.446Z,59.17
2022-12-25T09:20:31.442Z,48.67
2022-12-25T09:22:34.720Z,43.63
2022-12-25T09:24:36.710Z,42.75
2022-12-25T09:26:38.474Z,42.30
2022-12-25T09:28:45.117Z,41.63
2022-12-25T09:30:51.862Z,41.33
2022-12-25T09:32:53.827Z,42.97
2022-12-25T09:34:55.605Z,40.42
2022-12-25T09:36:57.411Z,46.85
2022-12-25T09:38:59.211Z,52.30
2022-12-25T09:41:16.845Z,55.78
2022-12-25T09:43:21.017Z,58.50
2022-12-25T09:45:37.838Z,61.50
2022-12-25T09:47:42.990Z,54.35
2022-12-25T09:49:47.758Z,51.67
2022-12-25T09:51:57.195Z,48.58
2022-12-25T09:54:05.036Z,41.45
2022-12-25T09:56:16.845Z,52.80
2022-12-25T09:58:18.726Z,52.75
2022-12-25T10:00:23.022Z,49.00
2022-12-25T10:03:00.855Z,78.22
2022-12-25T10:05:31.803Z,48.88
2022-12-25T10:07:55.132Z,44.63
2022-12-25T10:10:02.771Z,73.53
2022-12-25T10:12:28.248Z,59.67
2022-12-25T10:15:01.977Z,59.83
2022-12-25T10:17:18.801Z,79.07
2022-12-25T10:19:35.233Z,78.18
2022-12-25T10:21:37.516Z,65.47
2022-12-25T10:23:48.200Z,64.18
2022-12-25T10:25:51.736Z,59.10
2022-12-25T10:27:58.347Z,56.40
2022-12-25T10:30:02.521Z,47.60
2022-12-25T10:32:04.564Z,45.40
2022-12-25T10:34:06.960Z,45.35
2022-12-25T10:36:09.279Z,43.70
2022-12-25T10:38:16.658Z,43.63
2022-12-25T10:40:28.074Z,47.85
2022-12-25T10:42:42.689Z,50.78
2022-12-25T10:45:08.367Z,47.53
2022-12-25T10:47:10.311Z,43.40
2022-12-25T10:49:16.110Z,95.20
2022-12-25T10:51:38.648Z,91.32
2022-12-25T10:53:43.213Z,121.90
2022-12-25T10:56:01.351Z,105.72
2022-12-25T10:58:03.052Z,63.22
2022-12-25T11:00:05.982Z,57.35
2022-12-25T11:02:28.208Z,49.08
2022-12-25T11:04:34.961Z,40.70
2022-12-25T11:06:36.761Z,35.55
2022-12-25T11:08:38.561Z,30.98
2022-12-25T11:10:41.084Z,35.53
2022-12-25T11:12:45.481Z,40.05
2022-12-25T11:14:57.686Z,38.35
2022-12-25T11:17:09.803Z,39.95
2022-12-25T11:19:26.702Z,37.63
2022-12-25T11:21:31.106Z,49.95
2022-12-25T11:23:32.942Z,39.53
2022-12-25T11:25:34.871Z,39.63
2022-12-25T11:27:36.895Z,47.17
2022-12-25T11:29:50.788Z,60.42
2022-12-25T11:31:54.741Z,68.18
2022-12-25T11:33:56.610Z,44.88
2022-12-25T11:36:06.398Z,90.53
2022-12-25T11:38:08.738Z,141.95
2022-12-25T11:40:23.882Z,82.32
2022-12-25T11:42:37.327Z,60.00
2022-12-25T11:44:57.107Z,70.47
2022-12-25T11:47:08.275Z,62.95
2022-12-25T11:49:16.352Z,62.92
2022-12-25T11:51:20.002Z,62.92
2022-12-25T11:55:45.392Z,68.45
2022-12-25T11:57:53.657Z,56.33
2022-12-25T12:00:08.696Z,57.00
2022-12-25T12:02:26.984Z,87.40
2022-12-25T12:04:40.317Z,62.58
2022-12-25T12:07:08.577Z,92.05
2022-12-25T12:09:40.935Z,58.13
2022-12-25T12:11:51.897Z,77.32
2022-12-25T12:14:17.083Z,102.53
2022-12-25T12:16:19.139Z,75.85
2022-12-25T12:18:26.802Z,80.38
2022-12-25T12:20:32.282Z,85.57
2022-12-25T12:22:34.106Z,52.75
2022-12-25T12:24:42.819Z,84.35
2022-12-25T12:26:47.394Z,61.80
2022-12-25T12:28:51.654Z,76.03
2022-12-25T12:31:03.703Z,61.75
2022-12-25T12:33:07.941Z,46.40
2022-12-25T12:35:38.289Z,48.72
2022-12-25T12:37:42.110Z,44.60
2022-12-25T12:39:44.815Z,49.45
2022-12-25T12:41:49.117Z,49.35
2022-12-25T12:44:03.180Z,44.50
2022-12-25T12:46:31.000Z,47.28
2022-12-25T12:48:42.424Z,50.72
2022-12-25T12:50:44.227Z,69.85
2022-12-25T12:52:46.011Z,68.05
2022-12-25T12:55:04.688Z,58.75
2022-12-25T12:57:24.025Z,46.05
2022-12-25T12:59:27.073Z,45.63
2022-12-25T13:02:20.452Z,46.33
2022-12-25T13:04:43.439Z,42.90
2022-12-25T13:06:58.960Z,44.40
2022-12-25T13:09:03.689Z,42.97
2022-12-25T13:11:15.014Z,56.65
2022-12-25T13:13:30.105Z,52.75
2022-12-25T13:15:34.902Z,44.72
2022-12-25T13:17:37.307Z,40.08
2022-12-25T13:19:43.124Z,43.03
2022-12-25T13:22:02.105Z,39.95
2022-12-25T13:24:19.798Z,38.33
2022-12-25T13:26:21.516Z,50.33
2022-12-25T13:28:33.833Z,310.95
2022-12-25T13:30:36.028Z,97.65
2022-12-25T13:32:37.910Z,49.38
2022-12-25T13:34:42.436Z,75.90
2022-12-25T13:36:44.583Z,77.35
2022-12-25T13:38:49.220Z,80.15
2022-12-25T13:40:56.545Z,82.07
2022-12-25T13:43:00.734Z,65.05
2022-12-25T13:45:04.368Z,56.03
2022-12-25T13:47:23.011Z,131.88
2022-12-25T13:49:25.128Z,51.70
2022-12-25T13:51:27.928Z,52.10
2022-12-25T13:53:29.626Z,84.93
2022-12-25T13:55:33.984Z,53.67
2022-12-25T13:57:38.932Z,47.60
2022-12-25T13:59:44.505Z,86.82
2022-12-25T14:01:46.996Z,80.25
2022-12-25T14:03:48.880Z,69.95
2022-12-25T14:05:59.451Z,48.00
2022-12-25T14:08:03.601Z,98.43
2022-12-25T14:10:06.314Z,79.22
2022-12-25T14:12:10.739Z,79.03
2022-12-25T14:14:20.429Z,49.65
2022-12-25T14:16:23.307Z,60.08
2022-12-25T14:18:26.112Z,78.85
2022-12-25T14:20:31.152Z,67.07
2022-12-25T14:22:32.889Z,60.45
2022-12-25T14:24:35.139Z,63.00
2022-12-25T14:26:37.088Z,67.78
2022-12-25T14:28:38.804Z,63.80
2022-12-25T14:30:42.799Z,51.45
2022-12-25T14:32:48.783Z,78.75
2022-12-25T14:34:54.803Z,68.65
2022-12-25T14:36:56.920Z,72.82
2022-12-25T14:39:01.397Z,59.60
2022-12-25T14:41:06.290Z,70.43
2022-12-25T14:43:27.366Z,63.55
2022-12-25T14:45:32.311Z,64.97
2022-12-25T14:47:50.097Z,92.03
2022-12-25T14:49:51.821Z,98.03
2022-12-25T14:51:53.545Z,108.00
2022-12-25T14:53:58.163Z,138.52
2022-12-25T14:56:00.259Z,191.93
2022-12-25T14:58:05.517Z,83.15
2022-12-25T15:00:20.158Z,152.70
2022-12-25T15:02:22.110Z,159.00
2022-12-25T15:04:26.171Z,152.85
2022-12-25T15:06:28.892Z,230.63
2022-12-25T15:08:32.464Z,97.47
2022-12-25T15:12:56.552Z,104.40
2022-12-25T15:14:58.260Z,83.20
2022-12-25T15:17:01.500Z,98.10
2022-12-25T15:19:03.299Z,80.13
2022-12-25T15:21:05.266Z,99.22
2022-12-25T15:23:21.156Z,91.82
2022-12-25T15:25:23.403Z,107.22
2022-12-25T15:27:25.057Z,117.82
2022-12-25T15:30:07.250Z,87.97
2022-12-25T15:31:48.814Z,103.57
2022-12-25T15:33:51.304Z,129.48
2022-12-25T15:35:53.350Z,125.20
2022-12-25T15:37:55.031Z,85.45
2022-12-25T15:39:57.505Z,96.10
2022-12-25T15:42:00.167Z,74.70
2022-12-25T15:44:02.253Z,86.80
2022-12-25T15:46:04.118Z,81.78
2022-12-25T15:48:06.374Z,55.40
2022-12-25T15:50:09.735Z,55.40
2022-12-25T15:52:14.938Z,48.50
2022-12-25T15:54:16.765Z,58.70
2022-12-25T15:56:19.013Z,55.10
2022-12-25T15:58:20.760Z,47.78
2022-12-25T16:00:23.285Z,52.97
2022-12-25T16:02:25.246Z,41.60
2022-12-25T16:04:28.577Z,55.22
2022-12-25T16:06:30.740Z,42.55
2022-12-25T16:08:32.385Z,44.35
2022-12-25T16:10:38.653Z,40.38
2022-12-25T16:12:41.079Z,40.20
2022-12-25T16:14:42.770Z,58.35
2022-12-25T16:16:44.465Z,41.75
2022-12-25T16:18:47.592Z,54.53
2022-12-25T16:20:53.916Z,52.08
2022-12-25T16:22:55.755Z,83.10
2022-12-25T16:24:57.589Z,89.65
2022-12-25T16:26:59.309Z,88.07
2022-12-25T16:29:06.690Z,80.35
2022-12-25T16:31:09.116Z,77.60
2022-12-25T16:33:11.209Z,121.60
2022-12-25T16:35:12.930Z,112.30
2022-12-25T16:37:14.920Z,77.88
2022-12-25T16:39:16.589Z,80.35
2022-12-25T16:41:18.295Z,105.00
2022-12-25T16:43:23.913Z,81.22
2022-12-25T16:45:26.043Z,95.35
2022-12-25T16:47:27.785Z,70.28
2022-12-25T16:49:29.956Z,146.07
2022-12-25T16:51:31.847Z,69.90
2022-12-25T16:53:33.503Z,85.82
2022-12-25T16:55:36.566Z,98.47
2022-12-25T16:57:38.311Z,133.20
2022-12-25T16:59:40.169Z,129.27
2022-12-25T17:01:42.770Z,96.50
2022-12-25T17:03:44.796Z,89.95
2022-12-25T17:05:46.549Z,69.90
2022-12-25T17:07:48.440Z,64.15
2022-12-25T17:09:50.231Z,61.95
2022-12-25T17:11:51.988Z,66.03
2022-12-25T17:13:54.509Z,56.08
2022-12-25T17:15:56.285Z,58.15
2022-12-25T17:17:57.966Z,68.10
2022-12-25T17:20:00.026Z,58.13
2022-12-25T17:22:01.776Z,48.50
2022-12-25T17:24:04.376Z,60.08
2022-12-25T17:26:06.468Z,58.72
2022-12-25T17:28:08.182Z,68.00
2022-12-25T17:30:10.325Z,69.50
2022-12-25T17:32:12.984Z,65.38
2022-12-25T17:34:14.673Z,72.32
2022-12-25T17:36:19.030Z,106.65
2022-12-25T17:38:21.034Z,61.95
2022-12-25T17:40:22.714Z,69.40
2022-12-25T17:42:24.418Z,65.00
2022-12-25T17:44:26.326Z,59.25
2022-12-25T17:46:29.996Z,84.80
2022-12-25T17:50:37.487Z,70.85
2022-12-25T17:52:42.934Z,63.97
2022-12-25T17:54:44.619Z,61.88
2022-12-25T17:56:46.378Z,76.10
2022-12-25T17:58:53.006Z,62.20
2022-12-25T18:00:55.135Z,84.40
2022-12-25T18:02:57.809Z,60.50
2022-12-25T18:04:59.670Z,67.40
2022-12-25T18:07:01.379Z,98.47
2022-12-25T18:09:05.076Z,95.95
2022-12-25T18:13:11.709Z,97.80
2022-12-25T18:15:13.555Z,98.43
2022-12-25T18:17:15.215Z,90.70
2022-12-25T18:19:16.951Z,116.32
2022-12-25T18:21:19.087Z,58.22
2022-12-25T18:23:21.061Z,87.75
2022-12-25T18:25:22.819Z,51.50
2022-12-25T18:27:24.889Z,60.10
2022-12-25T18:29:26.557Z,73.82
2022-12-25T18:31:29.143Z,47.17
2022-12-25T18:33:31.118Z,67.25
2022-12-25T18:35:32.897Z,161.73
2022-12-25T18:37:39.872Z,85.30
2022-12-25T18:39:42.300Z,90.82
2022-12-25T18:41:44.115Z,77.97
2022-12-25T18:43:52.812Z,56.75
2022-12-25T18:45:58.297Z,69.35
2022-12-25T18:48:00.398Z,55.35
2022-12-25T18:50:02.111Z,67.78
2022-12-25T18:52:49.609Z,64.70
2022-12-25T18:54:25.680Z,66.63
2022-12-25T18:56:27.352Z,65.53
2022-12-25T18:58:29.086Z,55.08
2022-12-25T19:00:30.879Z,64.38
2022-12-25T19:02:32.798Z,53.22
2022-12-25T19:04:35.928Z,46.25
2022-12-25T19:06:37.677Z,41.05
2022-12-25T19:08:39.374Z,46.03
2022-12-25T19:10:43.801Z,43.33
2022-12-25T19:12:45.514Z,41.45
2022-12-25T19:14:48.339Z,43.30
2022-12-25T19:16:50.427Z,41.13
2022-12-25T19:18:52.203Z,44.97
2022-12-25T19:20:53.896Z,42.83
2022-12-25T19:22:55.732Z,39.47
2022-12-25T19:24:57.424Z,41.53
2022-12-25T19:26:59.231Z,44.42
2022-12-25T19:29:01.080Z,47.40
2022-12-25T19:31:03.933Z,51.80
2022-12-25T19:33:05.652Z,61.03
2022-12-25T19:35:07.679Z,44.80
2022-12-25T19:37:09.385Z,46.55
2022-12-25T19:39:11.788Z,50.10
2022-12-25T19:41:17.522Z,47.38
2022-12-25T19:43:19.241Z,68.13
2022-12-25T19:45:21.029Z,67.70
2022-12-25T19:47:23.095Z,57.42
2022-12-25T19:49:24.829Z,76.50
2022-12-25T19:51:28.581Z,60.72
2022-12-25T19:53:31.093Z,54.15
2022-12-25T19:55:32.932Z,49.70
2022-12-25T19:57:34.703Z,52.50
2022-12-25T19:59:36.473Z,50.83
2022-12-25T20:01:38.909Z,41.05
2022-12-25T20:03:45.838Z,34.83
2022-12-25T20:05:48.213Z,43.67
2022-12-25T20:07:49.917Z,39.40
2022-12-25T20:09:51.652Z,45.53
2022-12-25T20:11:53.408Z,43.15
2022-12-25T20:13:55.604Z,47.00
2022-12-25T20:16:01.044Z,49.25
2022-12-25T20:18:03.045Z,42.17
2022-12-25T20:20:05.636Z,46.28
2022-12-25T20:22:07.568Z,46.60
2022-12-25T20:24:10.247Z,44.83
2022-12-25T20:26:13.051Z,42.80
2022-12-25T20:28:16.892Z,44.70
2022-12-25T20:30:18.748Z,51.97
2022-12-25T20:32:20.551Z,53.72
2022-12-25T20:34:22.339Z,48.08
2022-12-25T20:36:24.156Z,45.13
2022-12-25T20:38:25.877Z,42.78
2022-12-25T20:40:27.692Z,42.63
2022-12-25T20:42:34.422Z,43.88
2022-12-25T20:44:36.431Z,45.88
2022-12-25T20:46:38.143Z,47.08
2022-12-25T20:48:40.313Z,61.65
2022-12-25T20:50:41.967Z,62.28
2022-12-25T20:52:43.660Z,64.40
2022-12-25T20:54:45.615Z,58.42
2022-12-25T20:56:48.867Z,49.13
2022-12-25T20:58:58.865Z,59.20
2022-12-25T21:01:13.800Z,51.58
2022-12-25T21:03:15.633Z,59.85
2022-12-25T21:05:17.448Z,93.25
2022-12-25T21:07:19.290Z,83.40
2022-12-25T21:09:20.975Z,49.70
2022-12-25T21:11:22.731Z,49.20
2022-12-25T21:13:25.481Z,56.55
2022-12-25T21:15:27.162Z,60.77
2022-12-25T21:17:28.823Z,53.35
2022-12-25T21:19:30.831Z,72.55
2022-12-25T21:21:32.525Z,66.30
2022-12-25T21:23:35.705Z,54.40
2022-12-25T21:25:38.211Z,48.63
2022-12-25T21:27:39.878Z,47.83
2022-12-25T21:29:41.700Z,44.42
2022-12-25T21:31:43.808Z,54.22
2022-12-25T21:33:46.047Z,44.22
2022-12-25T21:35:48.201Z,43.88
2022-12-25T21:37:50.149Z,45.13
2022-12-25T21:39:51.972Z,40.78
2022-12-25T21:41:53.720Z,43.38
2022-12-25T21:43:56.224Z,39.60
2022-12-25T21:46:02.198Z,38.67
2022-12-25T21:48:04.214Z,39.00
2022-12-25T21:50:06.506Z,38.33
2022-12-25T21:52:08.172Z,39.67
2022-12-25T21:54:11.051Z,39.25
2022-12-25T21:56:13.000Z,38.22
2022-12-25T21:58:14.733Z,37.97
2022-12-25T22:00:16.553Z,36.70
2022-12-25T22:02:18.461Z,38.97
2022-12-25T22:04:22.712Z,43.60
2022-12-25T22:06:24.377Z,39.80
2022-12-25T22:08:30.460Z,41.65
2022-12-25T22:10:32.131Z,42.28
2022-12-25T22:12:34.552Z,41.67
2022-12-25T22:14:51.629Z,40.80
2022-12-25T22:16:55.381Z,38.47
2022-12-25T22:18:57.131Z,36.40
2022-12-25T22:20:58.803Z,37.35
2022-12-25T22:23:00.580Z,38.35
2022-12-25T22:25:04.590Z,38.40
2022-12-25T22:27:06.355Z,38.45
2022-12-25T22:29:08.074Z,43.25
2022-12-25T22:31:09.838Z,48.70
2022-12-25T22:33:11.869Z,45.08
2022-12-25T22:35:14.310Z,40.20
2022-12-25T22:37:18.013Z,39.60
2022-12-25T22:41:21.384Z,38.83
2022-12-25T22:43:32.545Z,39.67
2022-12-25T22:45:44.906Z,41.30
2022-12-25T22:47:46.571Z,40.00
2022-12-25T22:49:49.359Z,42.65
2022-12-25T22:51:52.457Z,83.23
2022-12-25T22:53:57.511Z,53.47
2022-12-25T22:56:03.546Z,48.35
2022-12-25T22:58:05.734Z,39.45
2022-12-25T23:00:08.139Z,37.47
2022-12-25T23:02:10.044Z,41.80
2022-12-25T23:04:13.130Z,39.63
2022-12-25T23:06:14.839Z,44.10
2022-12-25T23:08:16.554Z,37.95
2022-12-25T23:10:18.247Z,42.10
2022-12-25T23:12:19.954Z,39.20
2022-12-25T23:14:21.711Z,37.85
2022-12-25T23:16:24.177Z,39.33
2022-12-25T23:18:25.918Z,37.10
2022-12-25T23:20:27.669Z,38.55
2022-12-25T23:22:29.670Z,36.83
2022-12-25T23:24:31.354Z,35.95
2022-12-25T23:26:33.053Z,35.10
2022-12-25T23:28:42.371Z,37.55
2022-12-25T23:30:44.025Z,34.70
2022-12-25T23:32:45.755Z,36.42
2022-12-25T23:34:47.716Z,36.20
2022-12-25T23:36:49.378Z,34.55
2022-12-25T23:38:51.172Z,34.03
2022-12-25T23:40:53.002Z,33.92
2022-12-25T23:42:54.738Z,34.10
2022-12-25T23:44:56.408Z,33.20
2022-12-25T23:46:58.466Z,33.72
2022-12-25T23:49:00.239Z,34.67
2022-12-25T23:51:06.401Z,33.65
2022-12-25T23:53:08.361Z,32.30
2022-12-25T23:55:10.147Z,32.53
2022-12-25T23:57:11.823Z,31.13
2022-12-25T23:59:14.468Z,31.77
